createdAt,value
2017-11-25T06:31:10.134Z,-0.10
2017-11-25T06:52:26.887Z,0.50
2017-11-25T07:11:32.532Z,1.10
2017-11-25T07:35:50.692Z,2.70
2017-11-25T18:41:38.809Z,8.50
2017-11-25T18:51:43.885Z,8.40
2017-11-25T19:05:09.778Z,8.10
2017-11-25T19:07:51.132Z,8.10
2017-11-25T19:23:40.193Z,7.60
2017-11-25T19:26:08.949Z,7.60
2017-11-25T19:28:37.589Z,7.60
2017-11-25T19:31:06.323Z,7.60
2017-11-25T19:33:35.092Z,7.50
2017-11-25T19:36:03.893Z,7.50
2017-11-25T19:38:32.606Z,7.50
2017-11-25T19:41:01.185Z,7.40
2017-11-25T19:43:30.007Z,7.40
2017-11-25T19:45:58.793Z,7.40
2017-11-25T19:48:27.492Z,7.40
2017-11-25T19:50:56.233Z,7.40
2017-11-25T19:53:24.940Z,7.30
2017-11-25T19:55:53.732Z,7.30
2017-11-25T19:58:22.486Z,7.30
2017-11-25T20:00:51.349Z,7.30
2017-11-25T20:03:20.153Z,7.30
2017-11-25T20:05:49.892Z,7.20
2017-11-25T20:08:18.944Z,7.20
2017-11-25T20:10:48.472Z,7.20
2017-11-25T20:13:17.959Z,7.20
2017-11-25T20:15:47.530Z,7.20
2017-11-25T20:18:16.285Z,7.20
2017-11-25T20:20:45.042Z,7.20
2017-11-25T20:25:50.899Z,7.20
2017-11-25T20:28:19.750Z,7.20
2017-11-25T20:30:48.514Z,7.20
2017-11-25T20:33:19.206Z,7.20
2017-11-25T20:35:49.217Z,7.20
2017-11-25T20:38:19.448Z,7.30
2017-11-25T20:40:48.614Z,7.20
2017-11-25T20:43:18.407Z,7.10
2017-11-25T20:45:47.619Z,7.10
2017-11-25T20:48:16.357Z,7.10
2017-11-25T20:50:45.216Z,7.00
2017-11-25T20:53:13.936Z,7.10
2017-11-25T20:55:44.650Z,7.10
2017-11-25T20:58:13.675Z,7.10
2017-11-25T21:00:42.711Z,7.00
2017-11-25T21:03:11.585Z,7.10
2017-11-25T21:05:40.547Z,7.10
2017-11-25T21:08:10.485Z,7.10
2017-11-25T21:10:40.070Z,7.10
2017-11-25T21:13:08.828Z,7.10
2017-11-25T21:15:37.717Z,7.10
2017-11-25T21:18:06.555Z,7.00
2017-11-25T21:20:36.090Z,7.10
2017-11-25T21:23:06.526Z,7.00
2017-11-25T21:25:35.755Z,7.00
2017-11-25T21:28:04.524Z,7.00
2017-11-25T21:30:34.215Z,7.00
2017-11-25T21:33:03.115Z,7.00
2017-11-25T21:35:32.146Z,6.90
2017-11-25T21:38:01.028Z,6.80
2017-11-25T21:40:30.787Z,6.80
2017-11-25T21:42:59.620Z,6.70
2017-11-25T21:45:29.347Z,6.70
2017-11-25T21:47:58.202Z,6.70
2017-11-25T21:50:26.943Z,6.50
2017-11-25T21:52:55.731Z,6.50
2017-11-25T21:55:24.562Z,6.60
2017-11-25T21:57:53.761Z,6.60
2017-11-25T22:00:23.352Z,6.50
2017-11-25T22:02:54.055Z,6.50
2017-11-25T22:05:25.131Z,6.50
2017-11-25T22:07:53.866Z,6.50
2017-11-25T22:10:22.655Z,6.50
2017-11-25T22:12:51.470Z,6.50
2017-11-25T22:15:21.249Z,6.40
2017-11-25T22:17:50.939Z,6.50
2017-11-25T22:20:19.841Z,6.50
2017-11-25T22:22:48.681Z,6.50
2017-11-25T22:25:17.514Z,6.60
2017-11-25T22:27:47.060Z,6.40
2017-11-25T22:30:23.276Z,6.40
2017-11-25T22:32:53.049Z,6.40
2017-11-25T22:35:22.008Z,6.40
2017-11-25T22:37:50.818Z,6.40
2017-11-25T22:40:19.471Z,6.40
2017-11-25T22:42:49.110Z,6.40
2017-11-25T22:45:19.602Z,6.40
2017-11-25T22:47:48.353Z,6.40
2017-11-25T22:50:16.987Z,6.40
2017-11-25T22:52:45.778Z,6.40
2017-11-25T22:55:14.540Z,6.40
2017-11-25T22:57:44.116Z,6.20
2017-11-25T23:00:12.899Z,6.10
2017-11-25T23:02:41.735Z,6.20
2017-11-25T23:05:11.087Z,6.10
2017-11-25T23:07:39.974Z,6.00
2017-11-25T23:10:08.784Z,6.10
2017-11-25T23:12:37.580Z,6.10
2017-11-25T23:15:06.431Z,6.10
2017-11-25T23:17:35.215Z,6.20
2017-11-25T23:20:04.156Z,6.10
2017-11-25T23:22:32.908Z,6.10
2017-11-25T23:25:01.688Z,6.00
2017-11-25T23:27:30.486Z,6.10
2017-11-25T23:29:59.346Z,6.10
2017-11-25T23:32:28.171Z,6.10
2017-11-25T23:34:57.063Z,6.10
2017-11-25T23:37:25.875Z,6.00
2017-11-25T23:39:54.624Z,6.00
2017-11-25T23:42:23.405Z,5.90
2017-11-25T23:44:52.205Z,6.00
2017-11-25T23:47:21.138Z,6.00
2017-11-25T23:49:49.860Z,6.10
2017-11-25T23:52:19.426Z,6.10
2017-11-25T23:54:48.193Z,6.10
2017-11-25T23:57:16.982Z,6.00
2017-11-25T23:59:45.816Z,6.00
